Terminal Aerodrome Forecast
Issued by NWS Shreveport, LA

Home | Current Version | Previous Version | Text Only | Print | Product List | Glossary On
Versions: 1 2 3 4 5 6 7 8 9 10 11 12 13
000
FTUS44 KSHV 251545 AAA
TAFMLU
TAF AMD
KMLU 251545Z 2516/2612 17010KT P6SM BKN020
     FM251800 18010G16KT P6SM SCT025 BKN100
     FM252100 18010KT P6SM VCTS SCT040CB BKN100
     FM260000 18006KT P6SM BKN250
     FM261000 18006KT P6SM BKN015=

USA.gov is the U.S. government's official web portal to all federal, state and local government web resources and services.